Airport details for: LKPR (Czech Republic)

Metar

LKPR 301030Z 10010KT 9999 FEW043 11/02 Q1018 NOSIG

General details

ICAO: LKPR
IATA: PRG
Name (city): Ruzyne
Major:
Country: Czech Republic
vACC: Czech vACC
Description:

Web: http://www.vacc-cz.org/airports/lkpr

Scenery links:
FS9 scenery: Download
FSX/P3D scenery: Download
XP scenery: Download
Elevation: 1247 ft.
Transition altitude: 5000 ft.
MSA: 12100 ft.
Latitude: 50.100833
Longitude: 14.26
LKPR Charts
LKPR Notams
LKPR Online stations

Runways

Number Course Length Elevation Lat Lon ILS ILS freq ILS FAC GP
04 34° 6955ft / 2120 m 1247ft 50.087714 14.266683 - - 3.0°
06 62° 12188ft / 3715 m 1202ft 50.101836 14.2263 111.15 62° 3.0°
12 124° 10663ft / 3250 m 1160ft 50.108011 14.245367 109.95 124° 3.0°
22 214° 6955ft / 2120 m 1174ft 50.102917 14.284445 - - 3.0°
24 242° 12188ft / 3715 m 1158ft 50.11595 14.273367 109.1 242° 3.0°
30 304° 10663ft / 3250 m 1232ft 50.090467 14.281672 109.5 304° 3.0°